N1798Z -KGCN
Flight info
| Callsign | N1798Z |
|---|---|
| Flight time | N/A |
| Altitude | VFR |
| Route | |
| Aircraft | S22T/L-VGD/C |
Departure
| Time | N/A |
|---|---|
| Airport | - |
Arrival
| Time | 2026-05-06 02:54 |
|---|---|
| Airport | Grand Canyon National Park Airport (KGCN) |
| Time | Latitude | Longitude | Altitude | Speed | Heading |
|---|---|---|---|---|---|
| 2026-05-06 02:53 | 35.95793 | -112.13871 | 6605 ft | 0 kts | 304° |
| 2026-05-06 02:56 | 35.95796 | -112.13877 | 6605 ft | 4 kts | 308° |
| 2026-05-06 02:57 | 35.95842 | -112.13881 | 6604 ft | 10 kts | 40° |
| 2026-05-06 02:57 | 35.95910 | -112.13806 | 6604 ft | 16 kts | 40° |
| 2026-05-06 02:57 | 35.95992 | -112.13722 | 6614 ft | 14 kts | 41° |
| 2026-05-06 02:57 | 35.96075 | -112.13635 | 6615 ft | 13 kts | 23° |
| 2026-05-06 02:58 | 35.96095 | -112.13632 | 6615 ft | 0 kts | 352° |
| 2026-05-06 02:59 | 35.96120 | -112.13652 | 6612 ft | 11 kts | 319° |
| 2026-05-06 02:59 | 35.96139 | -112.13732 | 6611 ft | 10 kts | 236° |
| 2026-05-06 02:59 | 35.96041 | -112.13842 | 6605 ft | 44 kts | 221° |
| 2026-05-06 03:00 | 35.95684 | -112.14204 | 6687 ft | 77 kts | 218° |
| 2026-05-06 03:00 | 35.95182 | -112.14539 | 6886 ft | 94 kts | 207° |
| 2026-05-06 03:00 | 35.94504 | -112.14751 | 7172 ft | 109 kts | 190° |
| 2026-05-06 03:00 | 35.93765 | -112.14330 | 7380 ft | 142 kts | 127° |
| 2026-05-06 03:01 | 35.93538 | -112.13134 | 7718 ft | 143 kts | 102° |
| 2026-05-06 03:01 | 35.93668 | -112.12016 | 7743 ft | 131 kts | 51° |
| 2026-05-06 03:01 | 35.94294 | -112.11240 | 7627 ft | 127 kts | 39° |
| 2026-05-06 03:01 | 35.94867 | -112.10459 | 7501 ft | 120 kts | 44° |
| 2026-05-06 03:02 | 35.95390 | -112.09705 | 7373 ft | 113 kts | 24° |
| 2026-05-06 03:02 | 35.96081 | -112.09421 | 7194 ft | 102 kts | 340° |
| 2026-05-06 03:02 | 35.96677 | -112.09670 | 7100 ft | 83 kts | 291° |
| 2026-05-06 03:02 | 35.96785 | -112.10312 | 6980 ft | 83 kts | 263° |
| 2026-05-06 03:03 | 35.96658 | -112.10949 | 6950 ft | 82 kts | 219° |
| 2026-05-06 03:03 | 35.96175 | -112.11257 | 7014 ft | 78 kts | 224° |
| 2026-05-06 03:03 | 35.95680 | -112.11593 | 7075 ft | 82 kts | 213° |
| 2026-05-06 03:03 | 35.95158 | -112.11953 | 7211 ft | 87 kts | 215° |
| 2026-05-06 03:04 | 35.94582 | -112.12243 | 7326 ft | 98 kts | 206° |
| 2026-05-06 03:04 | 35.93942 | -112.12500 | 7532 ft | 97 kts | 204° |
| 2026-05-06 03:04 | 35.93262 | -112.12760 | 7608 ft | 98 kts | 220° |
| 2026-05-06 03:04 | 35.92984 | -112.13397 | 7714 ft | 95 kts | 270° |
| 2026-05-06 03:05 | 35.93367 | -112.14112 | 7659 ft | 119 kts | 328° |
| 2026-05-06 03:05 | 35.94240 | -112.13944 | 7559 ft | 147 kts | 32° |
| 2026-05-06 03:05 | 35.94946 | -112.13012 | 7663 ft | 142 kts | 45° |
| 2026-05-06 03:05 | 35.95547 | -112.12146 | 7608 ft | 129 kts | 40° |
| 2026-05-06 03:06 | 35.96120 | -112.11333 | 7540 ft | 120 kts | 46° |
| 2026-05-06 03:06 | 35.96725 | -112.10660 | 7386 ft | 113 kts | 21° |
| 2026-05-06 03:06 | 35.97427 | -112.10582 | 7203 ft | 96 kts | 327° |
| 2026-05-06 03:06 | 35.97680 | -112.11229 | 7016 ft | 99 kts | 256° |
| 2026-05-06 03:07 | 35.97478 | -112.12044 | 6963 ft | 95 kts | 250° |
| 2026-05-06 03:07 | 35.97166 | -112.12631 | 6915 ft | 73 kts | 226° |
| 2026-05-06 03:07 | 35.96798 | -112.13017 | 6743 ft | 71 kts | 227° |
| 2026-05-06 03:07 | 35.96454 | -112.13451 | 6734 ft | 69 kts | 214° |
| 2026-05-06 03:08 | 35.96099 | -112.13802 | 6610 ft | 60 kts | 215° |
| 2026-05-06 03:08 | 35.95822 | -112.14077 | 6599 ft | 45 kts | 220° |
| 2026-05-06 03:08 | 35.95637 | -112.14120 | 6599 ft | 18 kts | 109° |
| 2026-05-06 03:08 | 35.95642 | -112.14094 | 6600 ft | 0 kts | 56° |
| 2026-05-06 03:09 | 35.95648 | -112.14085 | 6600 ft | 4 kts | 47° |
| 2026-05-06 03:10 | 35.95695 | -112.14035 | 6597 ft | 13 kts | 38° |
| 2026-05-06 03:10 | 35.95778 | -112.13948 | 6599 ft | 18 kts | 41° |
| 2026-05-06 03:10 | 35.95879 | -112.13839 | 6601 ft | 21 kts | 40° |
| 2026-05-06 03:10 | 35.95996 | -112.13719 | 6610 ft | 20 kts | 41° |
| 2026-05-06 03:11 | 35.96071 | -112.13636 | 6611 ft | 10 kts | 32° |
| 2026-05-06 03:11 | 35.96095 | -112.13630 | 6611 ft | 0 kts | 352° |
| 2026-05-06 03:14 | 35.96116 | -112.13646 | 6611 ft | 10 kts | 315° |
| 2026-05-06 03:14 | 35.96131 | -112.13740 | 6609 ft | 13 kts | 236° |
| 2026-05-06 03:14 | 35.95979 | -112.13913 | 6601 ft | 58 kts | 222° |
| 2026-05-06 03:15 | 35.95567 | -112.14297 | 6761 ft | 79 kts | 218° |
| 2026-05-06 03:15 | 35.95057 | -112.14734 | 6887 ft | 95 kts | 219° |
| 2026-05-06 03:15 | 35.94518 | -112.15203 | 7178 ft | 92 kts | 217° |
| 2026-05-06 03:15 | 35.93959 | -112.15634 | 7335 ft | 91 kts | 214° |
| 2026-05-06 03:16 | 35.93341 | -112.15799 | 7324 ft | 99 kts | 185° |
| 2026-05-06 03:16 | 35.92701 | -112.15479 | 7387 ft | 110 kts | 142° |
| 2026-05-06 03:16 | 35.92255 | -112.14683 | 7424 ft | 113 kts | 130° |
| 2026-05-06 03:16 | 35.91993 | -112.13663 | 7429 ft | 132 kts | 93° |
| 2026-05-06 03:17 | 35.92274 | -112.12584 | 7500 ft | 135 kts | 45° |
| 2026-05-06 03:17 | 35.92931 | -112.11743 | 7571 ft | 136 kts | 34° |
| 2026-05-06 03:17 | 35.93612 | -112.10941 | 7682 ft | 135 kts | 36° |
| 2026-05-06 03:17 | 35.94259 | -112.10122 | 7767 ft | 135 kts | 40° |
| 2026-05-06 03:18 | 35.94921 | -112.09228 | 7820 ft | 143 kts | 42° |
| 2026-05-06 03:18 | 35.95583 | -112.08378 | 7776 ft | 135 kts | 41° |
| 2026-05-06 03:18 | 35.96188 | -112.07538 | 7762 ft | 123 kts | 41° |
| 2026-05-06 03:18 | 35.96842 | -112.07016 | 7529 ft | 105 kts | 5° |
| 2026-05-06 03:19 | 35.97445 | -112.07101 | 7374 ft | 79 kts | 311° |
| 2026-05-06 03:19 | 35.97732 | -112.07601 | 7338 ft | 69 kts | 262° |
| 2026-05-06 03:19 | 35.97350 | -112.07959 | 7352 ft | 83 kts | 207° |
| 2026-05-06 03:19 | 35.97107 | -112.08462 | 7427 ft | 79 kts | 291° |
| 2026-05-06 03:20 | 35.97932 | -112.09358 | 7641 ft | 74 kts | 264° |
| 2026-05-06 03:20 | 35.97793 | -112.10010 | 7577 ft | 81 kts | 259° |
| 2026-05-06 03:20 | 35.97857 | -112.10736 | 7568 ft | 85 kts | 264° |
| 2026-05-06 03:21 | 35.97692 | -112.11485 | 7350 ft | 92 kts | 250° |
| 2026-05-06 03:21 | 35.97447 | -112.12175 | 7170 ft | 82 kts | 247° |
| 2026-05-06 03:21 | 35.97108 | -112.12666 | 6959 ft | 69 kts | 225° |
| 2026-05-06 03:21 | 35.96790 | -112.13080 | 6787 ft | 68 kts | 221° |
| 2026-05-06 03:22 | 35.96340 | -112.13399 | 6754 ft | 84 kts | 207° |
| 2026-05-06 03:22 | 35.95867 | -112.13863 | 6905 ft | 90 kts | 221° |
| 2026-05-06 03:22 | 35.95348 | -112.14398 | 7093 ft | 105 kts | 222° |
| 2026-05-06 03:22 | 35.94722 | -112.14972 | 7315 ft | 116 kts | 218° |
| 2026-05-06 03:23 | 35.94088 | -112.15590 | 7549 ft | 127 kts | 232° |
| 2026-05-06 03:23 | 35.93487 | -112.16418 | 7815 ft | 132 kts | 227° |
| 2026-05-06 03:23 | 35.92845 | -112.17115 | 8034 ft | 112 kts | 216° |
| 2026-05-06 03:23 | 35.92114 | -112.17101 | 8016 ft | 115 kts | 152° |
| 2026-05-06 03:24 | 35.91792 | -112.16176 | 7848 ft | 130 kts | 89° |
| 2026-05-06 03:24 | 35.92162 | -112.15196 | 7750 ft | 121 kts | 42° |
| 2026-05-06 03:24 | 35.92766 | -112.14412 | 7502 ft | 134 kts | 44° |
| 2026-05-06 03:24 | 35.93363 | -112.13583 | 7529 ft | 128 kts | 42° |
| 2026-05-06 03:25 | 35.93947 | -112.12803 | 7508 ft | 121 kts | 40° |
| 2026-05-06 03:25 | 35.94477 | -112.12040 | 7485 ft | 114 kts | 47° |
| 2026-05-06 03:25 | 35.94936 | -112.11183 | 7491 ft | 118 kts | 52° |
| 2026-05-06 03:25 | 35.95462 | -112.10365 | 7543 ft | 123 kts | 40° |
| 2026-05-06 03:26 | 35.96026 | -112.09593 | 7650 ft | 121 kts | 39° |
| 2026-05-06 03:26 | 35.96616 | -112.08881 | 7797 ft | 118 kts | 34° |
| 2026-05-06 03:26 | 35.97235 | -112.08208 | 7849 ft | 112 kts | 14° |
| 2026-05-06 03:26 | 35.97903 | -112.08059 | 7771 ft | 90 kts | 331° |
| 2026-05-06 03:27 | 35.98392 | -112.08476 | 7663 ft | 81 kts | 310° |
| 2026-05-06 03:27 | 35.98667 | -112.09008 | 7506 ft | 78 kts | 272° |
| 2026-05-06 03:27 | 35.98573 | -112.09640 | 7406 ft | 74 kts | 252° |
| 2026-05-06 03:27 | 35.98405 | -112.10240 | 7292 ft | 73 kts | 251° |
| 2026-05-06 03:28 | 35.98245 | -112.10828 | 7189 ft | 71 kts | 252° |
| 2026-05-06 03:28 | 35.98040 | -112.11379 | 7092 ft | 74 kts | 242° |
| 2026-05-06 03:28 | 35.97740 | -112.11909 | 7073 ft | 76 kts | 229° |
| 2026-05-06 03:28 | 35.97369 | -112.12394 | 6966 ft | 77 kts | 227° |
| 2026-05-06 03:29 | 35.97046 | -112.12847 | 6869 ft | 62 kts | 228° |
| 2026-05-06 03:29 | 35.96948 | -112.13127 | 6600 ft | 0 kts | 231° |
| 2026-05-06 03:29 | 35.96947 | -112.13127 | 6600 ft | 0 kts | 236° |
| 2026-05-06 03:30 | 35.95965 | -112.13710 | 6600 ft | 16 kts | 40° |
| 2026-05-06 03:39 | 35.95999 | -112.13705 | 6614 ft | 11 kts | 14° |
| 2026-05-06 03:39 | 35.96061 | -112.13644 | 6615 ft | 14 kts | 39° |
| 2026-05-06 03:39 | 35.96084 | -112.13628 | 6615 ft | 0 kts | 356° |
| 2026-05-06 03:40 | 35.96088 | -112.13629 | 6615 ft | 1 kts | 355° |
| 2026-05-06 03:40 | 35.96097 | -112.13631 | 6615 ft | 0 kts | 344° |
| 2026-05-06 03:41 | 35.96142 | -112.13691 | 6611 ft | 18 kts | 289° |
| 2026-05-06 03:41 | 35.96044 | -112.13844 | 6605 ft | 47 kts | 221° |
| 2026-05-06 03:41 | 35.95686 | -112.14187 | 6773 ft | 73 kts | 220° |
| 2026-05-06 03:42 | 35.95234 | -112.14572 | 7060 ft | 83 kts | 217° |
| 2026-05-06 03:42 | 35.94708 | -112.14892 | 7396 ft | 88 kts | 207° |
| 2026-05-06 03:42 | 35.94099 | -112.15190 | 7654 ft | 102 kts | 211° |
| 2026-05-06 03:42 | 35.93367 | -112.15523 | 7899 ft | 118 kts | 205° |
| 2026-05-06 03:43 | 35.92528 | -112.15727 | 8142 ft | 137 kts | 181° |
| 2026-05-06 03:43 | 35.91628 | -112.15221 | 8412 ft | 149 kts | 158° |
| 2026-05-06 03:43 | 35.90935 | -112.14364 | 8525 ft | 146 kts | 104° |
| 2026-05-06 03:43 | 35.91246 | -112.13271 | 8502 ft | 138 kts | 51° |
| 2026-05-06 03:44 | 35.91809 | -112.12323 | 8450 ft | 133 kts | 45° |
| 2026-05-06 03:44 | 35.92393 | -112.11464 | 8357 ft | 131 kts | 40° |
| 2026-05-06 03:44 | 35.93017 | -112.10647 | 8195 ft | 135 kts | 41° |
| 2026-05-06 03:44 | 35.93634 | -112.09823 | 8164 ft | 123 kts | 38° |
| 2026-05-06 03:45 | 35.94235 | -112.09049 | 8001 ft | 122 kts | 38° |
| 2026-05-06 03:45 | 35.94889 | -112.08497 | 7857 ft | 106 kts | 1° |
| 2026-05-06 03:45 | 35.95544 | -112.08546 | 7652 ft | 90 kts | 340° |
| 2026-05-06 03:45 | 35.96138 | -112.08704 | 7454 ft | 85 kts | 324° |
| 2026-05-06 03:46 | 35.96718 | -112.08963 | 7397 ft | 89 kts | 319° |
| 2026-05-06 03:46 | 35.97005 | -112.09568 | 7302 ft | 83 kts | 273° |
| 2026-05-06 03:46 | 35.97169 | -112.10247 | 7329 ft | 82 kts | 279° |
| 2026-05-06 03:46 | 35.97371 | -112.10905 | 7296 ft | 79 kts | 277° |
| 2026-05-06 03:47 | 35.97394 | -112.11576 | 7168 ft | 76 kts | 266° |
| 2026-05-06 03:47 | 35.97307 | -112.12175 | 6999 ft | 68 kts | 250° |
| 2026-05-06 03:47 | 35.97066 | -112.12708 | 6876 ft | 80 kts | 225° |
| 2026-05-06 03:47 | 35.96652 | -112.13194 | 6853 ft | 75 kts | 220° |
| 2026-05-06 03:48 | 35.96305 | -112.13541 | 6673 ft | 58 kts | 225° |
| 2026-05-06 03:48 | 35.96034 | -112.13900 | 6606 ft | 55 kts | 216° |
| 2026-05-06 03:48 | 35.95773 | -112.14140 | 6598 ft | 37 kts | 219° |
| 2026-05-06 03:48 | 35.95654 | -112.14155 | 6598 ft | 6 kts | 128° |
| 2026-05-06 03:49 | 35.95640 | -112.14124 | 6599 ft | 6 kts | 101° |
| 2026-05-06 03:49 | 35.95638 | -112.14112 | 6601 ft | 0 kts | 92° |
| 2026-05-06 03:49 | 35.95638 | -112.14111 | 6601 ft | 0 kts | 93° |
| 2026-05-06 03:49 | 35.95651 | -112.14080 | 6603 ft | 11 kts | 48° |
| 2026-05-06 03:50 | 35.95738 | -112.13989 | 6601 ft | 20 kts | 42° |
| 2026-05-06 03:50 | 35.95841 | -112.13879 | 6604 ft | 20 kts | 40° |
| 2026-05-06 03:50 | 35.95947 | -112.13770 | 6605 ft | 21 kts | 38° |
| 2026-05-06 03:50 | 35.96035 | -112.13675 | 6614 ft | 15 kts | 40° |
| 2026-05-06 03:51 | 35.96089 | -112.13632 | 6615 ft | 0 kts | 0° |
| 2026-05-06 03:52 | 35.96126 | -112.13660 | 6612 ft | 14 kts | 311° |
| 2026-05-06 03:53 | 35.96111 | -112.13770 | 6609 ft | 20 kts | 222° |
| 2026-05-06 03:53 | 35.95848 | -112.14040 | 6655 ft | 70 kts | 218° |
| 2026-05-06 03:53 | 35.95392 | -112.14399 | 6908 ft | 82 kts | 214° |
| 2026-05-06 03:53 | 35.94816 | -112.14726 | 7224 ft | 98 kts | 208° |
| 2026-05-06 03:54 | 35.94117 | -112.14905 | 7568 ft | 114 kts | 185° |
| 2026-05-06 03:54 | 35.93254 | -112.14788 | 7687 ft | 139 kts | 180° |
| 2026-05-06 03:54 | 35.92217 | -112.14702 | 7685 ft | 158 kts | 183° |
| 2026-05-06 03:54 | 35.91084 | -112.14695 | 7798 ft | 161 kts | 186° |
| 2026-05-06 03:55 | 35.90045 | -112.14632 | 8404 ft | 138 kts | 180° |
| 2026-05-06 03:55 | 35.89115 | -112.14548 | 8838 ft | 135 kts | 186° |
| 2026-05-06 03:55 | 35.88175 | -112.14428 | 9226 ft | 136 kts | 183° |
| 2026-05-06 03:55 | 35.87223 | -112.14309 | 9571 ft | 139 kts | 185° |
| 2026-05-06 03:56 | 35.86258 | -112.14210 | 9949 ft | 139 kts | 183° |
| 2026-05-06 03:56 | 35.85284 | -112.14108 | 10260 ft | 142 kts | 181° |
| 2026-05-06 03:56 | 35.84312 | -112.14030 | 10601 ft | 142 kts | 179° |
| 2026-05-06 03:56 | 35.83326 | -112.13812 | 10973 ft | 144 kts | 173° |
| 2026-05-06 03:57 | 35.82340 | -112.13572 | 11337 ft | 146 kts | 174° |
| 2026-05-06 03:57 | 35.81284 | -112.13307 | 11431 ft | 165 kts | 174° |
| 2026-05-06 03:57 | 35.80118 | -112.13044 | 11436 ft | 177 kts | 174° |
| 2026-05-06 03:57 | 35.78870 | -112.12727 | 11440 ft | 188 kts | 171° |
| 2026-05-06 03:58 | 35.77576 | -112.12389 | 11438 ft | 192 kts | 174° |
| 2026-05-06 03:58 | 35.76248 | -112.12065 | 11436 ft | 195 kts | 173° |
| 2026-05-06 03:58 | 35.74905 | -112.11769 | 11430 ft | 197 kts | 176° |
| 2026-05-06 03:58 | 35.74012 | -112.11559 | 11428 ft | 198 kts | 174° |
| 2026-05-06 03:59 | 35.72659 | -112.11236 | 11424 ft | 200 kts | 174° |
| 2026-05-06 03:59 | 35.71293 | -112.10884 | 11425 ft | 201 kts | 171° |
| 2026-05-06 03:59 | 35.69923 | -112.10550 | 11418 ft | 200 kts | 173° |
| 2026-05-06 03:59 | 35.68104 | -112.10138 | 11415 ft | 199 kts | 174° |
| 2026-05-06 04:00 | 35.67181 | -112.09937 | 11412 ft | 200 kts | 174° |
| 2026-05-06 04:00 | 35.65818 | -112.09607 | 11409 ft | 200 kts | 175° |
| 2026-05-06 04:00 | 35.64450 | -112.09258 | 11405 ft | 201 kts | 173° |
| 2026-05-06 04:00 | 35.63101 | -112.08927 | 11402 ft | 200 kts | 176° |
| 2026-05-06 04:01 | 35.61722 | -112.08593 | 11395 ft | 198 kts | 174° |
| 2026-05-06 04:01 | 35.60399 | -112.08276 | 11393 ft | 195 kts | 175° |
| 2026-05-06 04:01 | 35.59075 | -112.07949 | 11387 ft | 193 kts | 173° |
| 2026-05-06 04:01 | 35.57744 | -112.07613 | 11384 ft | 193 kts | 174° |
| 2026-05-06 04:02 | 35.56450 | -112.07260 | 11409 ft | 192 kts | 174° |
| 2026-05-06 04:02 | 35.55140 | -112.06935 | 11415 ft | 192 kts | 174° |
| 2026-05-06 04:02 | 35.53831 | -112.06604 | 11419 ft | 192 kts | 174° |
| 2026-05-06 04:02 | 35.52519 | -112.06294 | 11422 ft | 192 kts | 175° |
| 2026-05-06 04:03 | 35.51210 | -112.05962 | 11426 ft | 192 kts | 174° |
| 2026-05-06 04:03 | 35.49903 | -112.05624 | 11431 ft | 192 kts | 174° |
| 2026-05-06 04:03 | 35.48596 | -112.05271 | 11436 ft | 192 kts | 172° |
| 2026-05-06 04:03 | 35.47284 | -112.04940 | 11443 ft | 193 kts | 174° |
| 2026-05-06 04:04 | 35.45965 | -112.04619 | 11445 ft | 193 kts | 173° |
| 2026-05-06 04:04 | 35.44646 | -112.04304 | 11453 ft | 194 kts | 173° |
| 2026-05-06 04:04 | 35.43318 | -112.04069 | 11453 ft | 192 kts | 181° |
| 2026-05-06 04:04 | 35.41986 | -112.03895 | 11456 ft | 192 kts | 180° |
| 2026-05-06 04:05 | 35.40660 | -112.03730 | 11460 ft | 191 kts | 180° |
| 2026-05-06 04:05 | 35.39333 | -112.03574 | 11457 ft | 191 kts | 179° |
| 2026-05-06 04:05 | 35.38014 | -112.03450 | 11463 ft | 191 kts | 180° |
| 2026-05-06 04:05 | 35.36689 | -112.03328 | 11464 ft | 190 kts | 180° |
| 2026-05-06 04:06 | 35.35372 | -112.03202 | 11468 ft | 190 kts | 180° |
| 2026-05-06 04:06 | 35.34054 | -112.03075 | 11470 ft | 190 kts | 179° |
| 2026-05-06 04:06 | 35.32752 | -112.02955 | 11472 ft | 190 kts | 179° |
| 2026-05-06 04:06 | 35.31429 | -112.02835 | 11471 ft | 190 kts | 179° |
| 2026-05-06 04:07 | 35.30109 | -112.02709 | 11471 ft | 190 kts | 179° |
| 2026-05-06 04:07 | 35.28797 | -112.02577 | 11468 ft | 189 kts | 180° |
| 2026-05-06 04:07 | 35.27487 | -112.02444 | 11467 ft | 189 kts | 179° |
| 2026-05-06 04:07 | 35.26179 | -112.02313 | 11465 ft | 189 kts | 180° |
| 2026-05-06 04:08 | 35.24864 | -112.02187 | 11456 ft | 189 kts | 179° |
| 2026-05-06 04:08 | 35.23549 | -112.02064 | 11453 ft | 189 kts | 180° |
| 2026-05-06 04:08 | 35.22236 | -112.01933 | 11449 ft | 189 kts | 180° |
| 2026-05-06 04:08 | 35.20925 | -112.01801 | 11443 ft | 189 kts | 180° |
| 2026-05-06 04:09 | 35.19613 | -112.01673 | 11341 ft | 189 kts | 180° |
| 2026-05-06 04:09 | 35.18305 | -112.01547 | 11340 ft | 189 kts | 179° |
| 2026-05-06 04:09 | 35.16995 | -112.01429 | 11340 ft | 189 kts | 180° |
| 2026-05-06 04:09 | 35.15685 | -112.01322 | 11327 ft | 188 kts | 181° |
| 2026-05-06 04:10 | 35.14385 | -112.01252 | 11374 ft | 187 kts | 181° |
| 2026-05-06 04:10 | 35.13107 | -112.01182 | 11373 ft | 185 kts | 182° |
| 2026-05-06 04:10 | 35.11824 | -112.01118 | 11373 ft | 183 kts | 181° |
| 2026-05-06 04:10 | 35.10554 | -112.01054 | 11375 ft | 182 kts | 181° |
| 2026-05-06 04:11 | 35.09290 | -112.00987 | 11373 ft | 182 kts | 181° |
| 2026-05-06 04:11 | 35.08025 | -112.00918 | 11374 ft | 182 kts | 182° |
| 2026-05-06 04:11 | 35.06761 | -112.00845 | 11346 ft | 181 kts | 181° |
| 2026-05-06 04:11 | 35.05504 | -112.00779 | 11351 ft | 181 kts | 182° |
| 2026-05-06 04:12 | 35.04242 | -112.00711 | 11353 ft | 181 kts | 181° |
| 2026-05-06 04:12 | 35.02980 | -112.00650 | 11363 ft | 181 kts | 182° |
| 2026-05-06 04:12 | 35.01712 | -112.00586 | 11369 ft | 183 kts | 181° |
| 2026-05-06 04:12 | 35.00445 | -112.00530 | 11374 ft | 182 kts | 182° |
| 2026-05-06 04:13 | 34.99183 | -112.00464 | 11377 ft | 182 kts | 181° |
| 2026-05-06 04:13 | 34.97923 | -112.00402 | 11376 ft | 181 kts | 181° |
| 2026-05-06 04:13 | 34.96667 | -112.00339 | 11378 ft | 181 kts | 182° |
| 2026-05-06 04:13 | 34.95406 | -112.00266 | 11384 ft | 182 kts | 181° |
| 2026-05-06 04:14 | 34.94141 | -112.00207 | 11387 ft | 183 kts | 182° |
| 2026-05-06 04:14 | 34.92886 | -112.00141 | 11378 ft | 183 kts | 181° |
| 2026-05-06 04:14 | 34.91622 | -112.00076 | 11385 ft | 182 kts | 181° |
| 2026-05-06 04:14 | 34.90364 | -112.00021 | 11386 ft | 180 kts | 182° |
| 2026-05-06 04:15 | 34.89110 | -111.99965 | 11391 ft | 180 kts | 181° |
| 2026-05-06 04:15 | 34.87857 | -111.99906 | 11389 ft | 181 kts | 181° |
| 2026-05-06 04:15 | 34.86599 | -111.99842 | 11390 ft | 181 kts | 181° |
| 2026-05-06 04:15 | 34.85334 | -111.99779 | 11346 ft | 184 kts | 182° |
| 2026-05-06 04:16 | 34.84041 | -111.99724 | 11224 ft | 188 kts | 181° |
| 2026-05-06 04:16 | 34.82721 | -111.99678 | 11105 ft | 190 kts | 182° |
| 2026-05-06 04:16 | 34.81392 | -111.99624 | 10982 ft | 192 kts | 182° |
| 2026-05-06 04:16 | 34.80055 | -111.99573 | 10862 ft | 192 kts | 181° |
| 2026-05-06 04:17 | 34.78714 | -111.99521 | 10736 ft | 193 kts | 182° |
| 2026-05-06 04:17 | 34.77380 | -111.99470 | 10612 ft | 192 kts | 181° |
| 2026-05-06 04:17 | 34.76040 | -111.99430 | 10488 ft | 192 kts | 182° |
| 2026-05-06 04:17 | 34.74703 | -111.99381 | 10365 ft | 192 kts | 181° |
| 2026-05-06 04:18 | 34.73373 | -111.99270 | 10245 ft | 193 kts | 176° |
| 2026-05-06 04:18 | 34.72043 | -111.99050 | 10120 ft | 193 kts | 175° |
| 2026-05-06 04:18 | 34.70713 | -111.98830 | 9995 ft | 192 kts | 175° |
| 2026-05-06 04:18 | 34.69393 | -111.98613 | 9868 ft | 192 kts | 175° |
| 2026-05-06 04:19 | 34.68073 | -111.98383 | 9737 ft | 191 kts | 175° |
| 2026-05-06 04:19 | 34.66751 | -111.98147 | 9594 ft | 191 kts | 176° |
| 2026-05-06 04:19 | 34.65454 | -111.97906 | 9469 ft | 191 kts | 174° |
| 2026-05-06 04:19 | 34.64141 | -111.97672 | 9356 ft | 190 kts | 176° |
| 2026-05-06 04:20 | 34.62852 | -111.97445 | 9348 ft | 185 kts | 175° |
| 2026-05-06 04:20 | 34.61591 | -111.97229 | 9338 ft | 182 kts | 175° |
| 2026-05-06 04:20 | 34.60346 | -111.96997 | 9333 ft | 180 kts | 175° |
| 2026-05-06 04:20 | 34.59114 | -111.96846 | 9333 ft | 176 kts | 182° |
| 2026-05-06 04:21 | 34.57895 | -111.96798 | 9324 ft | 176 kts | 181° |
| 2026-05-06 04:21 | 34.56671 | -111.96756 | 9318 ft | 176 kts | 182° |
| 2026-05-06 04:21 | 34.55445 | -111.96721 | 9311 ft | 177 kts | 182° |
| 2026-05-06 04:21 | 34.54210 | -111.96699 | 9308 ft | 177 kts | 183° |
| 2026-05-06 04:22 | 34.52978 | -111.96668 | 9241 ft | 180 kts | 182° |
| 2026-05-06 04:22 | 34.51713 | -111.96625 | 9091 ft | 184 kts | 182° |
| 2026-05-06 04:22 | 34.50418 | -111.96583 | 8943 ft | 187 kts | 182° |
| 2026-05-06 04:23 | 34.47791 | -111.96529 | 8643 ft | 189 kts | 182° |
| 2026-05-06 04:23 | 34.46470 | -111.96505 | 8487 ft | 190 kts | 182° |
| 2026-05-06 04:23 | 34.45146 | -111.96474 | 8345 ft | 190 kts | 184° |
| 2026-05-06 04:23 | 34.43842 | -111.96414 | 8194 ft | 190 kts | 181° |
| 2026-05-06 04:24 | 34.42523 | -111.96368 | 8039 ft | 189 kts | 182° |
| 2026-05-06 04:24 | 34.41208 | -111.96334 | 7896 ft | 189 kts | 184° |
| 2026-05-06 04:24 | 34.39895 | -111.96300 | 7744 ft | 188 kts | 182° |
| 2026-05-06 04:24 | 34.38595 | -111.96262 | 7592 ft | 186 kts | 182° |
| 2026-05-06 04:25 | 34.37305 | -111.96222 | 7445 ft | 185 kts | 182° |
| 2026-05-06 04:25 | 34.36015 | -111.96184 | 7320 ft | 184 kts | 182° |
| 2026-05-06 04:25 | 34.34770 | -111.96226 | 7311 ft | 176 kts | 186° |
| 2026-05-06 04:25 | 34.33556 | -111.96310 | 7309 ft | 172 kts | 187° |
| 2026-05-06 04:26 | 34.32363 | -111.96380 | 7303 ft | 171 kts | 187° |
| 2026-05-06 04:26 | 34.31178 | -111.96442 | 7310 ft | 170 kts | 185° |
| 2026-05-06 04:26 | 34.30001 | -111.96490 | 7309 ft | 169 kts | 187° |
| 2026-05-06 04:26 | 34.28828 | -111.96540 | 7308 ft | 168 kts | 186° |
| 2026-05-06 04:27 | 34.27662 | -111.96602 | 7309 ft | 169 kts | 186° |
| 2026-05-06 04:27 | 34.26488 | -111.96659 | 7312 ft | 169 kts | 186° |
| 2026-05-06 04:27 | 34.25328 | -111.96840 | 7314 ft | 167 kts | 197° |
| 2026-05-06 04:27 | 34.24219 | -111.97221 | 7313 ft | 165 kts | 202° |
| 2026-05-06 04:28 | 34.23141 | -111.97698 | 7314 ft | 165 kts | 203° |
| 2026-05-06 04:28 | 34.22061 | -111.98181 | 7312 ft | 166 kts | 204° |
| 2026-05-06 04:28 | 34.20982 | -111.98670 | 7313 ft | 166 kts | 204° |
| 2026-05-06 04:28 | 34.19898 | -111.99148 | 7313 ft | 166 kts | 204° |
| 2026-05-06 04:29 | 34.18816 | -111.99628 | 7312 ft | 166 kts | 204° |
| 2026-05-06 04:29 | 34.17761 | -112.00190 | 7309 ft | 165 kts | 212° |
| 2026-05-06 04:29 | 34.16753 | -112.00850 | 7316 ft | 165 kts | 210° |
| 2026-05-06 04:29 | 34.15741 | -112.01522 | 7315 ft | 167 kts | 212° |
| 2026-05-06 04:30 | 34.14720 | -112.02190 | 7317 ft | 168 kts | 211° |
| 2026-05-06 04:30 | 34.13693 | -112.02870 | 7318 ft | 168 kts | 211° |
| 2026-05-06 04:30 | 34.12650 | -112.03556 | 7213 ft | 174 kts | 211° |
| 2026-05-06 04:30 | 34.11584 | -112.04268 | 7096 ft | 177 kts | 212° |
| 2026-05-06 04:31 | 34.10499 | -112.04993 | 6978 ft | 179 kts | 212° |
| 2026-05-06 04:31 | 34.09411 | -112.05713 | 6860 ft | 178 kts | 211° |
| 2026-05-06 04:31 | 34.08337 | -112.06416 | 6741 ft | 177 kts | 211° |
| 2026-05-06 04:31 | 34.07254 | -112.07124 | 6617 ft | 177 kts | 211° |
| 2026-05-06 04:32 | 34.06103 | -112.07668 | 6499 ft | 180 kts | 198° |
| 2026-05-06 04:32 | 34.04878 | -112.08026 | 6378 ft | 181 kts | 197° |
| 2026-05-06 04:32 | 34.03655 | -112.08373 | 6258 ft | 181 kts | 196° |
| 2026-05-06 04:32 | 34.02434 | -112.08715 | 6135 ft | 180 kts | 197° |
| 2026-05-06 04:33 | 34.01212 | -112.09060 | 6010 ft | 180 kts | 197° |
| 2026-05-06 04:33 | 33.99994 | -112.09394 | 5878 ft | 180 kts | 195° |
| 2026-05-06 04:33 | 33.98738 | -112.09361 | 5747 ft | 185 kts | 171° |
| 2026-05-06 04:33 | 33.97499 | -112.08924 | 5622 ft | 186 kts | 167° |
| 2026-05-06 04:34 | 33.96262 | -112.08483 | 5504 ft | 185 kts | 168° |
| 2026-05-06 04:34 | 33.95024 | -112.08025 | 5364 ft | 187 kts | 167° |
| 2026-05-06 04:34 | 33.93792 | -112.07563 | 5321 ft | 183 kts | 167° |
| 2026-05-06 04:34 | 33.92589 | -112.07126 | 5315 ft | 179 kts | 168° |
| 2026-05-06 04:35 | 33.91408 | -112.06694 | 5373 ft | 174 kts | 168° |
| 2026-05-06 04:35 | 33.90253 | -112.06273 | 5386 ft | 173 kts | 167° |
| 2026-05-06 04:35 | 33.89098 | -112.05855 | 5391 ft | 174 kts | 168° |
| 2026-05-06 04:35 | 33.87942 | -112.05429 | 5379 ft | 173 kts | 168° |
| 2026-05-06 04:36 | 33.86769 | -112.05001 | 5251 ft | 179 kts | 168° |
| 2026-05-06 04:36 | 33.85576 | -112.04498 | 5140 ft | 183 kts | 163° |
| 2026-05-06 04:36 | 33.84447 | -112.03761 | 5005 ft | 192 kts | 140° |
| 2026-05-06 04:36 | 33.83831 | -112.02316 | 4884 ft | 200 kts | 107° |
| 2026-05-06 04:37 | 33.83530 | -112.00703 | 4786 ft | 201 kts | 105° |
| 2026-05-06 04:37 | 33.83221 | -111.99053 | 4648 ft | 202 kts | 106° |
| 2026-05-06 04:37 | 33.82702 | -111.97522 | 4514 ft | 196 kts | 123° |
| 2026-05-06 04:37 | 33.82045 | -111.96152 | 4393 ft | 184 kts | 124° |
| 2026-05-06 04:38 | 33.81241 | -111.95056 | 4251 ft | 169 kts | 147° |
| 2026-05-06 04:38 | 33.80323 | -111.94194 | 4123 ft | 164 kts | 154° |
| 2026-05-06 04:38 | 33.79297 | -111.93805 | 3976 ft | 148 kts | 171° |
| 2026-05-06 04:38 | 33.78321 | -111.93491 | 3862 ft | 143 kts | 168° |
| 2026-05-06 04:39 | 33.77372 | -111.93183 | 3739 ft | 140 kts | 170° |
| 2026-05-06 04:39 | 33.76452 | -111.92864 | 3615 ft | 135 kts | 169° |
| 2026-05-06 04:39 | 33.75561 | -111.92559 | 3481 ft | 132 kts | 168° |
| 2026-05-06 04:39 | 33.74685 | -111.92299 | 3398 ft | 129 kts | 170° |
| 2026-05-06 04:40 | 33.73811 | -111.92110 | 3228 ft | 127 kts | 175° |
| 2026-05-06 04:40 | 33.72967 | -111.91890 | 3108 ft | 123 kts | 174° |
| 2026-05-06 04:40 | 33.72120 | -111.91704 | 2993 ft | 124 kts | 174° |
| 2026-05-06 04:40 | 33.71275 | -111.91482 | 2863 ft | 124 kts | 173° |
| 2026-05-06 04:41 | 33.70450 | -111.91171 | 2742 ft | 125 kts | 162° |
| 2026-05-06 04:41 | 33.69697 | -111.90768 | 2618 ft | 112 kts | 163° |
| 2026-05-06 04:41 | 33.68988 | -111.90389 | 2484 ft | 111 kts | 165° |
| 2026-05-06 04:41 | 33.68342 | -111.90021 | 2447 ft | 99 kts | 159° |
| 2026-05-06 04:42 | 33.67738 | -111.89671 | 2448 ft | 89 kts | 167° |
| 2026-05-06 04:42 | 33.67188 | -111.89357 | 2450 ft | 90 kts | 159° |
| 2026-05-06 04:42 | 33.66838 | -111.88748 | 2250 ft | 106 kts | 64° |
| 2026-05-06 04:42 | 33.66939 | -111.88588 | 1774 ft | 0 kts | 22° |
| 2026-05-06 04:43 | 33.66940 | -111.88588 | 1773 ft | 0 kts | 22° |
| 2026-05-06 04:45 | 33.66941 | -111.88588 | 1773 ft | 0 kts | 23° |